Time;durP1;ratioP1;P1;durP2;ratioP2;P2;SDS_P1;SDS_P2;PMS_P1;PMS_P2;Temp;Humidity;BMP_temperature;BMP_pressure;BME280_temperature;BME280_humidity;BME280_pressure;Samples;Min_cycle;Max_cycle;Signal;HPM_P1;HPM_P2
2021/12/15 00:00:42;;;;;;;24.15;10.95;;;9.40;99.90;;;;;;10367663;28;84709;-49
2021/12/15 00:05:45;;;;;;;21.63;10.30;;;9.40;99.90;;;;;;10361430;28;85360;-49
2021/12/15 00:10:48;;;;;;;24.58;9.57;;;9.30;99.90;;;;;;10366121;28;84289;-46
2021/12/15 00:15:49;;;;;;;24.70;11.45;;;9.40;99.90;;;;;;10366295;28;84991;-48
2021/12/15 00:20:50;;;;;;;23.67;10.10;;;9.30;99.90;;;;;;10366127;28;85126;-49
2021/12/15 00:25:50;;;;;;;25.83;10.63;;;9.30;99.90;;;;;;10365954;28;84183;-48
2021/12/15 00:30:51;;;;;;;27.33;11.07;;;9.30;99.90;;;;;;10363949;28;87186;-50
2021/12/15 00:35:54;;;;;;;22.48;10.13;;;9.30;99.90;;;;;;10372032;28;85213;-46
2021/12/15 00:40:55;;;;;;;30.13;12.00;;;9.30;99.90;;;;;;10372396;28;84916;-47
2021/12/15 00:45:56;;;;;;;27.25;11.23;;;9.30;99.90;;;;;;10370711;28;87233;-47
2021/12/15 00:50:56;;;;;;;30.88;12.30;;;9.30;99.90;;;;;;10371338;28;85748;-46
2021/12/15 00:55:57;;;;;;;30.40;13.00;;;9.30;99.90;;;;;;10372829;28;86084;-43
2021/12/15 01:01:01;;;;;;;36.40;14.45;;;9.40;99.90;;;;;;10372751;28;85973;-46
2021/12/15 01:06:08;;;;;;;37.15;15.43;;;9.40;99.90;;;;;;10372181;28;86044;-52
2021/12/15 01:11:23;;;;;;;41.70;15.93;;;9.50;99.90;;;;;;10370336;28;86944;-45
2021/12/15 01:21:47;;;;;;;49.47;16.38;;;9.50;99.90;;;;;;10372172;28;84929;-47
2021/12/15 01:26:48;;;;;;;43.17;17.05;;;9.50;99.90;;;;;;10369940;28;84936;-46
2021/12/15 01:31:49;;;;;;;42.38;16.38;;;9.50;99.90;;;;;;10369483;28;87297;-51
2021/12/15 01:36:50;;;;;;;41.92;17.00;;;9.50;99.90;;;;;;10369654;28;86866;-47
2021/12/15 01:41:54;;;;;;;43.03;17.35;;;9.50;99.90;;;;;;10370689;28;84455;-46
2021/12/15 01:47:01;;;;;;;49.85;18.00;;;9.50;99.90;;;;;;10351289;28;86423;-48
2021/12/15 01:52:15;;;;;;;39.33;16.60;;;9.50;99.90;;;;;;10368936;28;84813;-50
2021/12/15 01:57:17;;;;;;;43.50;16.58;;;9.50;99.90;;;;;;10369945;28;84834;-45
2021/12/15 02:02:19;;;;;;;46.47;16.75;;;9.50;99.90;;;;;;10368113;28;85731;-44
2021/12/15 02:07:23;;;;;;;46.22;16.92;;;9.50;99.90;;;;;;10369292;28;84824;-46
2021/12/15 02:12:32;;;;;;;40.60;15.75;;;9.50;99.90;;;;;;10385049;22;85030;-49
2021/12/15 02:17:33;;;;;;;41.25;17.38;;;9.60;99.90;;;;;;10368456;28;86767;-51
2021/12/15 02:22:34;;;;;;;43.78;15.70;;;9.60;99.90;;;;;;10368709;28;86972;-56
2021/12/15 02:27:35;;;;;;;41.75;16.35;;;9.60;99.90;;;;;;10368811;28;85912;-50
2021/12/15 02:32:51;;;;;;;42.00;16.15;;;9.60;99.90;;;;;;10368992;28;85927;-49
2021/12/15 02:37:53;;;;;;;39.60;15.68;;;9.60;99.90;;;;;;10368655;28;85927;-52
2021/12/15 02:42:54;;;;;;;35.00;15.77;;;9.50;99.90;;;;;;10369838;28;84131;-50
2021/12/15 02:47:54;;;;;;;37.58;15.00;;;9.50;99.90;;;;;;10368401;28;83971;-51
2021/12/15 02:52:58;;;;;;;35.17;14.18;;;9.50;99.90;;;;;;10370111;28;84374;-51
2021/12/15 02:57:59;;;;;;;32.85;14.18;;;9.50;99.90;;;;;;10368420;28;84176;-49
2021/12/15 03:08:35;;;;;;;34.03;14.57;;;9.50;99.90;;;;;;10368495;28;84886;-52
2021/12/15 03:18:58;;;;;;;35.30;13.90;;;9.40;99.90;;;;;;10367766;28;86733;-51
2021/12/15 03:24:03;;;;;;;39.22;14.95;;;9.30;99.90;;;;;;10368998;28;84369;-53
2021/12/15 03:34:41;;;;;;;31.50;12.75;;;9.50;99.90;;;;;;10368570;28;85019;-51
2021/12/15 03:39:45;;;;;;;30.35;13.52;;;9.40;99.90;;;;;;10368072;28;84999;-51
2021/12/15 03:44:47;;;;;;;33.17;13.20;;;9.30;99.90;;;;;;10368285;28;84954;-53
2021/12/15 03:49:49;;;;;;;30.58;13.15;;;9.30;99.90;;;;;;10367708;28;84924;-56
2021/12/15 03:54:50;;;;;;;34.55;13.18;;;9.40;99.90;;;;;;10368075;28;84896;-48
2021/12/15 03:59:51;;;;;;;26.63;12.73;;;9.40;99.90;;;;;;10367002;28;84294;-51
2021/12/15 04:04:53;;;;;;;33.33;13.30;;;9.30;99.90;;;;;;10367681;28;84000;-50
2021/12/15 04:09:53;;;;;;;31.60;12.60;;;9.40;99.90;;;;;;10371514;28;84471;-53
2021/12/15 04:15:06;;;;;;;31.50;12.50;;;9.30;99.90;;;;;;10375119;28;84875;-51
2021/12/15 04:20:11;;;;;;;29.27;12.73;;;9.40;99.90;;;;;;10374192;28;84333;-53
2021/12/15 04:25:16;;;;;;;27.65;12.82;;;9.50;99.90;;;;;;10374322;28;84129;-52
2021/12/15 04:30:16;;;;;;;29.58;13.27;;;9.40;99.90;;;;;;10373584;28;84969;-54
2021/12/15 04:35:17;;;;;;;29.67;12.40;;;9.30;99.90;;;;;;10374164;28;84018;-50
2021/12/15 04:40:21;;;;;;;30.52;13.52;;;9.20;99.90;;;;;;10373460;28;84808;-50
2021/12/15 04:45:22;;;;;;;30.58;11.85;;;9.10;99.90;;;;;;10373366;28;85105;-53
2021/12/15 04:50:27;;;;;;;28.17;12.38;;;9.20;99.90;;;;;;10373244;28;84963;-52
2021/12/15 04:55:29;;;;;;;30.55;13.30;;;9.20;99.90;;;;;;10371981;28;86376;-49
2021/12/15 05:00:34;;;;;;;30.15;13.48;;;9.20;99.90;;;;;;10372634;28;84250;-52
2021/12/15 05:05:35;;;;;;;34.05;13.65;;;9.20;99.90;;;;;;10372680;28;84895;-51
2021/12/15 05:10:37;;;;;;;37.58;14.88;;;9.20;99.90;;;;;;10370253;28;85007;-51
2021/12/15 05:15:38;;;;;;;37.85;15.15;;;9.20;99.90;;;;;;10380020;28;84720;-53
2021/12/15 05:20:39;;;;;;;33.83;14.55;;;9.20;99.90;;;;;;10414214;28;84523;-50
2021/12/15 05:25:40;;;;;;;32.13;13.60;;;9.20;99.90;;;;;;10413658;28;84933;-50
2021/12/15 05:30:40;;;;;;;32.90;14.00;;;9.20;99.90;;;;;;10412285;28;84790;-53
2021/12/15 05:35:41;;;;;;;30.00;13.02;;;9.30;99.90;;;;;;10413619;28;84344;-49
2021/12/15 05:40:42;;;;;;;28.60;12.70;;;9.30;99.90;;;;;;10411055;28;86975;-55
2021/12/15 05:45:44;;;;;;;26.60;12.10;;;9.40;99.90;;;;;;10413041;28;84229;-50
2021/12/15 05:50:46;;;;;;;29.05;11.68;;;9.30;99.90;;;;;;10412787;28;84447;-53
2021/12/15 05:55:48;;;;;;;28.35;12.07;;;9.30;99.90;;;;;;10390760;28;85037;-49
2021/12/15 06:00:49;;;;;;;25.00;11.07;;;9.30;99.90;;;;;;10385946;28;84912;-52
2021/12/15 06:05:50;;;;;;;29.08;12.82;;;9.20;99.90;;;;;;10400361;28;87029;-50
2021/12/15 06:10:51;;;;;;;28.88;13.05;;;9.30;99.90;;;;;;10362241;28;84318;-50
2021/12/15 06:15:53;;;;;;;32.30;13.10;;;9.20;99.90;;;;;;10348743;28;84795;-52
2021/12/15 06:20:55;;;;;;;30.58;12.70;;;9.10;99.90;;;;;;10348713;28;85064;-50
2021/12/15 06:26:02;;;;;;;35.42;13.23;;;9.20;99.90;;;;;;10361596;28;84151;-47
2021/12/15 06:31:09;;;;;;;27.25;12.77;;;9.10;99.90;;;;;;10355627;28;85493;-51
2021/12/15 06:36:12;;;;;;;32.92;13.43;;;9.10;99.90;;;;;;10360940;28;84876;-49
2021/12/15 06:41:15;;;;;;;30.52;12.52;;;9.20;99.90;;;;;;10367603;28;85872;-51
2021/12/15 07:02:01;;;;;;;32.78;13.65;;;9.20;99.90;;;;;;10363009;28;84178;-54
2021/12/15 07:07:04;;;;;;;36.70;13.18;;;9.30;99.90;;;;;;10344745;28;84972;-52
2021/12/15 07:12:06;;;;;;;28.98;12.27;;;9.30;99.90;;;;;;10327750;28;84216;-49
2021/12/15 07:17:14;;;;;;;34.33;13.55;;;9.30;99.90;;;;;;10387782;28;85351;-48
2021/12/15 07:22:29;;;;;;;31.80;12.60;;;9.30;99.90;;;;;;10407862;28;84112;-49
2021/12/15 07:27:29;;;;;;;33.90;12.73;;;9.40;99.90;;;;;;10409161;28;84121;-51
2021/12/15 07:32:30;;;;;;;29.65;12.32;;;9.40;99.90;;;;;;10410485;28;84791;-49
2021/12/15 07:37:34;;;;;;;36.88;13.80;;;9.50;99.90;;;;;;10409273;28;84283;-50
2021/12/15 07:42:42;;;;;;;31.65;12.63;;;9.40;99.90;;;;;;10410994;28;86947;-50
2021/12/15 07:47:42;;;;;;;29.98;11.88;;;9.50;99.90;;;;;;10416382;28;84141;-49
2021/12/15 07:52:43;;;;;;;30.63;12.25;;;9.40;99.90;;;;;;10416531;28;84884;-51
2021/12/15 07:57:45;;;;;;;33.22;12.88;;;9.50;99.90;;;;;;10416636;28;84688;-50
2021/12/15 08:02:46;;;;;;;35.50;13.98;;;9.50;99.90;;;;;;10416133;28;84865;-49
2021/12/15 08:07:47;;;;;;;34.08;13.13;;;9.50;99.90;;;;;;10415816;28;85112;-48
2021/12/15 08:12:48;;;;;;;32.20;13.15;;;9.50;99.90;;;;;;10434711;22;85627;-49
2021/12/15 08:17:51;;;;;;;30.30;12.63;;;9.50;99.90;;;;;;10413715;28;84850;-48
2021/12/15 08:22:52;;;;;;;31.63;13.02;;;9.50;99.90;;;;;;10414396;28;84301;-52
2021/12/15 08:27:54;;;;;;;30.95;13.23;;;9.50;99.90;;;;;;10411949;28;85318;-48
2021/12/15 08:32:58;;;;;;;29.58;12.57;;;9.60;99.90;;;;;;10412797;28;84231;-48
2021/12/15 08:37:59;;;;;;;36.20;13.93;;;9.70;99.90;;;;;;10411445;28;85132;-44
2021/12/15 08:43:00;;;;;;;30.90;13.80;;;9.70;99.90;;;;;;10413885;28;84236;-52
2021/12/15 08:48:03;;;;;;;34.55;14.60;;;9.80;99.90;;;;;;10413512;28;84007;-45
2021/12/15 08:53:09;;;;;;;34.78;13.50;;;9.80;99.90;;;;;;10412805;28;84269;-47
2021/12/15 08:58:11;;;;;;;36.42;15.38;;;9.80;99.90;;;;;;10413005;28;85025;-48
2021/12/15 09:03:14;;;;;;;29.70;12.73;;;9.70;99.90;;;;;;10412749;28;84917;-48
2021/12/15 09:08:15;;;;;;;33.20;14.70;;;9.80;99.90;;;;;;10393906;28;87449;-49
2021/12/15 09:13:16;;;;;;;31.40;12.35;;;9.70;99.90;;;;;;10410754;28;84138;-49
2021/12/15 09:18:16;;;;;;;31.88;11.90;;;9.80;99.90;;;;;;10411854;28;84118;-46
2021/12/15 09:23:18;;;;;;;30.25;13.05;;;9.80;99.90;;;;;;10411648;28;84193;-50
2021/12/15 09:28:19;;;;;;;32.42;13.27;;;9.80;99.90;;;;;;10412076;28;84971;-45
2021/12/15 09:33:24;;;;;;;26.13;12.00;;;9.90;99.90;;;;;;10412054;28;84050;-46
2021/12/15 09:38:25;;;;;;;33.75;12.55;;;9.90;99.90;;;;;;10412143;28;84203;-45
2021/12/15 09:43:28;;;;;;;28.88;12.23;;;9.90;99.90;;;;;;10413435;28;84346;-48
2021/12/15 10:20:37;;;;;;;32.28;13.48;;;9.80;99.90;;;;;;10411643;28;84145;-46
2021/12/15 10:25:48;;;;;;;28.42;12.20;;;9.80;99.90;;;;;;10409688;28;85883;-45
2021/12/15 10:30:56;;;;;;;30.15;13.10;;;9.80;99.90;;;;;;10411948;28;84354;-46
2021/12/15 10:36:11;;;;;;;28.08;11.60;;;9.90;99.90;;;;;;10409229;28;86570;-46
2021/12/15 10:41:14;;;;;;;28.88;11.40;;;9.90;99.90;;;;;;10410762;28;84058;-47
2021/12/15 10:46:32;;;;;;;31.33;11.32;;;9.90;99.90;;;;;;10409855;28;84970;-50
2021/12/15 10:51:47;;;;;;;31.75;11.55;;;10.00;99.90;;;;;;10408546;28;84154;-48
2021/12/15 10:57:16;;;;;;;28.83;12.43;;;10.00;99.90;;;;;;10410238;28;84045;-51
2021/12/15 11:02:23;;;;;;;33.10;13.05;;;10.20;99.90;;;;;;10424209;28;84093;-49
2021/12/15 11:07:36;;;;;;;32.90;12.07;;;10.10;99.90;;;;;;10409609;28;84122;-47
2021/12/15 11:12:43;;;;;;;27.40;12.13;;;10.10;99.90;;;;;;10409117;28;84278;-46
2021/12/15 11:17:48;;;;;;;31.73;12.48;;;10.20;99.90;;;;;;10408789;28;84969;-50
2021/12/15 11:22:53;;;;;;;32.05;13.52;;;10.20;99.90;;;;;;10409317;28;84024;-44
2021/12/15 11:27:56;;;;;;;32.35;13.63;;;10.30;99.90;;;;;;10408589;28;84912;-50
2021/12/15 11:33:00;;;;;;;35.00;13.50;;;10.30;99.90;;;;;;10408987;28;85025;-45
2021/12/15 11:38:09;;;;;;;32.40;13.05;;;10.30;99.90;;;;;;10408953;28;84016;-46
2021/12/15 11:43:28;;;;;;;31.58;13.50;;;10.30;99.90;;;;;;10409944;28;84967;-46
2021/12/15 11:48:33;;;;;;;33.47;13.77;;;10.40;99.90;;;;;;10409485;28;84946;-46
2021/12/15 11:53:35;;;;;;;34.83;13.48;;;10.30;99.90;;;;;;10409243;28;84963;-50
2021/12/15 11:58:36;;;;;;;34.80;15.73;;;10.20;99.90;;;;;;10408873;28;84818;-51
2021/12/15 12:03:37;;;;;;;38.55;13.90;;;10.20;99.90;;;;;;10409469;28;84104;-50
2021/12/15 12:08:50;;;;;;;36.72;14.15;;;10.30;99.90;;;;;;10408646;28;84447;-46
2021/12/15 12:13:58;;;;;;;43.28;15.40;;;10.30;99.90;;;;;;10408676;28;84966;-50
2021/12/15 12:18:59;;;;;;;35.60;14.70;;;10.30;99.90;;;;;;10408176;28;83999;-47
2021/12/15 12:24:00;;;;;;;36.50;13.43;;;10.40;99.90;;;;;;10408283;28;84836;-46
2021/12/15 12:29:01;;;;;;;38.50;14.30;;;10.30;99.90;;;;;;10408770;28;85949;-44
2021/12/15 12:34:02;;;;;;;34.65;12.98;;;10.30;99.90;;;;;;10415277;28;84204;-45
2021/12/15 12:39:11;;;;;;;34.47;13.65;;;10.20;99.90;;;;;;10414971;28;84385;-45
2021/12/15 12:44:14;;;;;;;34.53;13.05;;;10.30;99.90;;;;;;10415235;28;84078;-52
2021/12/15 13:00:30;;;;;;;28.98;11.00;;;10.30;99.90;;;;;;10414787;28;85172;-46
2021/12/15 13:05:42;;;;;;;30.50;10.82;;;10.40;99.90;;;;;;10415025;28;84714;-51
2021/12/15 13:10:58;;;;;;;36.08;12.63;;;10.40;99.90;;;;;;10413940;28;84350;-44
2021/12/15 13:16:05;;;;;;;34.58;11.13;;;10.40;99.90;;;;;;10412901;28;84906;-48
2021/12/15 13:21:08;;;;;;;28.73;11.25;;;10.40;99.90;;;;;;10414183;28;84924;-50
2021/12/15 13:31:28;;;;;;;28.55;11.02;;;10.50;99.90;;;;;;10413641;28;85112;-48
2021/12/15 13:36:31;;;;;;;28.33;10.23;;;10.50;99.90;;;;;;10412257;28;87165;-47
2021/12/15 13:46:44;;;;;;;32.58;11.45;;;10.50;99.90;;;;;;10412675;28;84940;-47
2021/12/15 13:52:05;;;;;;;26.48;11.07;;;10.50;99.90;;;;;;10413710;28;84837;-45
2021/12/15 13:57:12;;;;;;;30.27;10.77;;;10.50;99.90;;;;;;10412735;28;84174;-44
2021/12/15 14:02:17;;;;;;;25.85;10.32;;;10.50;99.90;;;;;;10413053;28;84868;-49
2021/12/15 14:07:30;;;;;;;33.28;11.25;;;10.50;99.90;;;;;;10411169;28;84037;-50
2021/12/15 14:12:46;;;;;;;26.08;11.45;;;10.50;99.90;;;;;;10412009;28;85000;-46
2021/12/15 14:17:59;;;;;;;27.35;9.75;;;10.60;99.90;;;;;;10412336;28;84755;-45
2021/12/15 14:23:04;;;;;;;27.60;11.55;;;10.60;99.90;;;;;;10412287;28;84083;-48
2021/12/15 14:28:11;;;;;;;26.00;10.77;;;10.50;99.90;;;;;;10410205;28;84934;-50
2021/12/15 14:33:28;;;;;;;31.10;11.68;;;10.50;99.90;;;;;;10412714;28;85137;-48
2021/12/15 14:38:38;;;;;;;25.08;10.52;;;10.50;99.90;;;;;;10411575;28;83991;-47
2021/12/15 14:43:40;;;;;;;25.95;11.15;;;10.50;99.90;;;;;;10410850;28;85804;-49
2021/12/15 14:48:40;;;;;;;31.00;12.52;;;10.50;99.90;;;;;;10393650;28;84875;-45
2021/12/15 14:53:42;;;;;;;27.08;11.75;;;10.60;99.90;;;;;;10411400;28;84949;-46
2021/12/15 14:58:43;;;;;;;29.65;11.30;;;10.50;99.90;;;;;;10411224;28;84154;-49
2021/12/15 15:03:57;;;;;;;29.65;10.93;;;10.50;99.90;;;;;;10411396;28;84986;-48
2021/12/15 15:09:32;;;;;;;26.05;10.32;;;10.50;99.90;;;;;;10408580;28;85074;-48
2021/12/15 15:14:38;;;;;;;28.88;11.65;;;10.50;99.90;;;;;;10405598;28;85239;-45
2021/12/15 15:19:52;;;;;;;28.23;11.63;;;10.50;99.90;;;;;;10408115;28;85019;-46
2021/12/15 15:24:55;;;;;;;28.20;11.05;;;10.30;99.90;;;;;;10405863;28;85024;-44
2021/12/15 15:30:02;;;;;;;27.13;11.52;;;10.20;99.90;;;;;;10424744;28;84542;-50
2021/12/15 15:35:16;;;;;;;28.92;11.60;;;10.30;99.90;;;;;;10421493;28;84242;-50
2021/12/15 15:40:39;;;;;;;28.75;12.05;;;10.40;99.90;;;;;;10425006;28;85136;-49
2021/12/15 15:45:47;;;;;;;25.92;11.25;;;10.40;99.90;;;;;;10422013;28;85024;-50
2021/12/15 15:50:56;;;;;;;27.13;10.55;;;10.40;99.90;;;;;;10407718;28;84920;-50
2021/12/15 15:56:05;;;;;;;27.60;11.25;;;10.40;99.90;;;;;;10424604;28;84269;-47
2021/12/15 16:01:07;;;;;;;28.92;11.73;;;10.50;99.90;;;;;;10426362;28;84298;-45
2021/12/15 16:06:10;;;;;;;32.70;12.88;;;10.50;99.90;;;;;;10435776;27;84899;-49
2021/12/15 16:11:23;;;;;;;29.23;11.25;;;10.60;99.90;;;;;;10435204;28;84216;-42
2021/12/15 16:16:41;;;;;;;27.77;11.43;;;10.60;99.90;;;;;;10422048;28;85328;-45
2021/12/15 16:26:54;;;;;;;27.13;12.45;;;10.60;99.90;;;;;;10417726;28;84063;-45
2021/12/15 16:32:08;;;;;;;33.40;12.15;;;10.60;99.90;;;;;;10426564;28;85510;-48
2021/12/15 16:37:12;;;;;;;33.40;11.73;;;10.60;99.90;;;;;;10456830;27;84928;-46
2021/12/15 16:42:15;;;;;;;31.45;12.00;;;10.60;99.90;;;;;;10432566;28;84974;-46
2021/12/15 16:47:18;;;;;;;28.90;12.55;;;10.50;99.90;;;;;;10418152;28;85951;-45
2021/12/15 16:52:25;;;;;;;32.58;12.88;;;10.60;99.90;;;;;;10393930;28;85900;-48
2021/12/15 16:57:30;;;;;;;32.70;13.23;;;10.50;99.90;;;;;;10411161;28;84135;-47
2021/12/15 17:02:36;;;;;;;34.03;11.95;;;10.50;99.90;;;;;;10409937;28;84744;-48
2021/12/15 17:07:40;;;;;;;27.67;11.63;;;10.50;99.90;;;;;;10411673;28;84892;-48
2021/12/15 17:12:46;;;;;;;31.90;13.65;;;10.50;99.90;;;;;;10410609;28;84342;-56
2021/12/15 17:17:50;;;;;;;39.38;13.50;;;10.40;99.90;;;;;;10411926;28;84173;-45
2021/12/15 17:22:54;;;;;;;31.42;13.02;;;10.50;99.90;;;;;;10407247;28;84753;-48
2021/12/15 17:28:16;;;;;;;30.52;13.05;;;10.40;99.90;;;;;;10430843;28;86250;-56
2021/12/15 17:33:38;;;;;;;34.03;14.13;;;10.40;99.90;;;;;;10440759;28;86089;-58
2021/12/15 17:38:52;;;;;;;34.70;13.60;;;10.40;99.90;;;;;;10429039;28;84192;-56
2021/12/15 17:43:59;;;;;;;35.42;13.57;;;10.40;99.90;;;;;;10430003;28;85035;-58
2021/12/15 17:49:08;;;;;;;32.80;14.02;;;10.40;99.90;;;;;;10428276;28;85775;-63
2021/12/15 17:54:11;;;;;;;30.58;12.93;;;10.50;99.90;;;;;;10425685;28;84059;-50
2021/12/15 17:59:12;;;;;;;34.83;13.70;;;10.40;99.90;;;;;;10408076;28;87015;-51
2021/12/15 18:04:13;;;;;;;31.85;13.18;;;10.50;99.90;;;;;;10408479;28;84268;-49
2021/12/15 18:09:14;;;;;;;30.63;13.02;;;10.40;99.90;;;;;;10406653;28;84852;-55
2021/12/15 18:14:15;;;;;;;30.73;13.82;;;10.50;99.90;;;;;;10401470;28;84989;-56
2021/12/15 18:19:15;;;;;;;37.65;15.10;;;10.30;99.90;;;;;;10409818;28;84262;-58
2021/12/15 18:24:17;;;;;;;34.63;14.43;;;10.40;99.90;;;;;;10408674;28;85347;-57
2021/12/15 18:29:20;;;;;;;36.47;14.63;;;10.40;99.90;;;;;;10404740;28;84737;-60
2021/12/15 18:34:20;;;;;;;37.30;14.88;;;10.30;99.90;;;;;;10407681;28;85067;-57
2021/12/15 18:39:26;;;;;;;33.55;14.15;;;10.20;99.90;;;;;;10404880;28;84420;-48
2021/12/15 18:44:28;;;;;;;31.60;14.43;;;10.30;99.90;;;;;;10407015;28;84150;-51
2021/12/15 18:49:31;;;;;;;31.98;14.07;;;10.30;99.90;;;;;;10399908;28;84157;-66
2021/12/15 18:54:32;;;;;;;34.60;13.98;;;10.20;99.90;;;;;;10406901;28;85479;-58
2021/12/15 18:59:33;;;;;;;34.70;13.45;;;10.20;99.90;;;;;;10408895;28;84088;-56
2021/12/15 19:04:36;;;;;;;32.67;14.43;;;10.20;99.90;;;;;;10411490;28;84237;-59
2021/12/15 19:09:40;;;;;;;34.13;14.65;;;10.20;99.90;;;;;;10409015;28;84243;-53
2021/12/15 19:14:42;;;;;;;37.70;14.75;;;10.20;99.90;;;;;;10399914;28;84999;-58
2021/12/15 19:19:49;;;;;;;36.95;15.68;;;10.30;99.90;;;;;;10403435;28;84222;-51
2021/12/15 19:24:51;;;;;;;34.15;13.95;;;10.30;99.90;;;;;;10407900;28;85032;-53
2021/12/15 19:29:54;;;;;;;36.03;14.48;;;10.30;99.90;;;;;;10408007;28;84903;-46
2021/12/15 19:34:58;;;;;;;36.83;15.43;;;10.30;99.90;;;;;;10407846;28;84932;-48
2021/12/15 19:39:59;;;;;;;36.95;14.68;;;10.30;99.90;;;;;;10410111;28;85118;-62
2021/12/15 19:44:59;;;;;;;31.60;15.13;;;10.30;99.90;;;;;;10399673;28;85067;-49
2021/12/15 19:50:00;;;;;;;36.95;14.93;;;10.40;99.90;;;;;;10415564;28;84017;-45
2021/12/15 19:55:03;;;;;;;32.90;14.73;;;10.30;99.90;;;;;;10415138;28;84922;-47
2021/12/15 20:00:07;;;;;;;36.83;15.73;;;10.20;99.90;;;;;;10414287;28;84909;-47
2021/12/15 20:05:20;;;;;;;36.67;15.48;;;10.30;99.90;;;;;;10414992;28;84204;-41
2021/12/15 20:10:23;;;;;;;36.40;15.75;;;10.20;99.90;;;;;;10416590;22;84908;-55
2021/12/15 20:15:25;;;;;;;40.22;16.25;;;10.20;99.90;;;;;;10375021;28;84225;-49
2021/12/15 20:20:26;;;;;;;35.35;16.00;;;10.10;99.90;;;;;;10373882;28;85160;-55
2021/12/15 20:25:27;;;;;;;38.83;15.93;;;10.10;99.90;;;;;;10385916;28;85017;-52
2021/12/15 20:30:30;;;;;;;40.45;16.30;;;10.00;99.90;;;;;;10378692;28;84209;-51
2021/12/15 20:35:33;;;;;;;31.60;15.60;;;9.90;99.90;;;;;;10390835;28;84261;-57
2021/12/15 20:40:36;;;;;;;31.52;15.07;;;10.00;99.90;;;;;;10389550;28;84441;-56
2021/12/15 20:45:38;;;;;;;36.22;16.15;;;9.90;99.90;;;;;;10391263;28;84246;-57
2021/12/15 20:50:39;;;;;;;39.47;15.85;;;10.00;99.90;;;;;;10397638;28;84219;-55
2021/12/15 20:55:40;;;;;;;40.05;16.98;;;10.00;99.90;;;;;;10381671;28;84293;-54
2021/12/15 21:00:45;;;;;;;36.72;15.65;;;10.00;99.90;;;;;;10399425;28;84892;-57
2021/12/15 21:05:51;;;;;;;37.58;16.60;;;10.00;99.90;;;;;;10395492;28;84075;-54
2021/12/15 21:10:56;;;;;;;36.92;15.93;;;10.00;99.90;;;;;;10388834;28;86874;-57
2021/12/15 21:15:57;;;;;;;32.65;15.32;;;9.90;99.90;;;;;;10393738;28;84825;-55
2021/12/15 21:20:57;;;;;;;37.50;17.02;;;9.90;99.90;;;;;;10396697;28;84143;-56
2021/12/15 21:26:00;;;;;;;37.78;16.95;;;9.90;99.90;;;;;;10412731;28;84649;-54
2021/12/15 21:31:03;;;;;;;39.53;17.27;;;9.90;99.90;;;;;;10376128;28;87312;-52
2021/12/15 21:36:05;;;;;;;37.20;17.77;;;10.00;99.90;;;;;;10371809;28;86130;-58
2021/12/15 21:41:09;;;;;;;40.67;17.98;;;9.90;99.90;;;;;;10371940;28;84178;-55
2021/12/15 21:46:10;;;;;;;40.72;16.80;;;10.00;99.90;;;;;;10372130;28;85400;-55
2021/12/15 21:51:14;;;;;;;41.33;17.55;;;10.00;99.90;;;;;;10372042;28;84109;-56
2021/12/15 21:56:15;;;;;;;38.17;16.50;;;9.90;99.90;;;;;;10371649;28;84112;-56
2021/12/15 22:01:16;;;;;;;38.25;15.55;;;9.90;99.90;;;;;;10372002;28;85261;-56
2021/12/15 22:06:18;;;;;;;36.90;17.05;;;9.90;99.90;;;;;;10371927;28;85032;-58
2021/12/15 22:11:20;;;;;;;39.45;16.67;;;9.90;99.90;;;;;;10371260;28;84145;-55
2021/12/15 22:16:21;;;;;;;41.13;17.25;;;9.90;99.90;;;;;;10369756;28;84168;-57
2021/12/15 22:21:26;;;;;;;43.65;18.33;;;9.80;99.90;;;;;;10369651;28;85037;-56
2021/12/15 22:26:29;;;;;;;38.30;16.42;;;9.80;99.90;;;;;;10370811;28;84912;-53
2021/12/15 22:31:34;;;;;;;40.33;16.65;;;9.70;99.90;;;;;;10352704;28;86701;-56
2021/12/15 22:36:35;;;;;;;38.10;16.48;;;9.80;99.90;;;;;;10369131;28;84068;-56
2021/12/15 22:41:36;;;;;;;36.22;16.13;;;9.80;99.90;;;;;;10368737;28;85563;-56
2021/12/15 22:46:38;;;;;;;42.53;17.17;;;9.70;99.90;;;;;;10370344;28;83988;-54
2021/12/15 22:51:39;;;;;;;36.85;15.95;;;9.80;99.90;;;;;;10369711;28;85050;-55
2021/12/15 22:56:43;;;;;;;40.38;16.27;;;9.80;99.90;;;;;;10369824;28;84120;-55
2021/12/15 23:01:50;;;;;;;35.28;16.65;;;9.80;99.90;;;;;;10368186;28;86999;-58
2021/12/15 23:06:58;;;;;;;37.67;16.33;;;9.70;99.90;;;;;;10369913;28;84113;-52
2021/12/15 23:17:10;;;;;;;38.50;16.23;;;9.80;99.90;;;;;;10369035;28;84944;-55
2021/12/15 23:22:12;;;;;;;33.58;15.90;;;9.70;99.90;;;;;;10369104;28;84957;-56
2021/12/15 23:27:12;;;;;;;42.15;16.40;;;9.80;99.90;;;;;;10368995;28;84333;-53
2021/12/15 23:32:17;;;;;;;40.53;15.95;;;9.80;99.90;;;;;;10368888;28;84124;-57
2021/12/15 23:37:18;;;;;;;40.22;16.17;;;9.70;99.90;;;;;;10368318;28;85384;-55
